sensor_id;sensor_type;location;lat;lon;timestamp;P1;P2;P0
30713;PMS7003;17465;47.934;33.430;2023-07-31T00:02:28;12.80;12.80;9.60
30713;PMS7003;17465;47.934;33.430;2023-07-31T00:04:59;14.80;14.00;10.40
30713;PMS7003;17465;47.934;33.430;2023-07-31T00:07:30;14.00;13.80;9.20
30713;PMS7003;17465;47.934;33.430;2023-07-31T00:10:01;12.80;12.80;7.00
30713;PMS7003;17465;47.934;33.430;2023-07-31T00:12:32;13.60;13.60;8.80
30713;PMS7003;17465;47.934;33.430;2023-07-31T00:15:03;15.60;13.40;10.00
30713;PMS7003;17465;47.934;33.430;2023-07-31T00:17:36;15.00;15.00;12.00
30713;PMS7003;17465;47.934;33.430;2023-07-31T00:20:07;15.60;15.60;11.40
30713;PMS7003;17465;47.934;33.430;2023-07-31T00:22:38;14.40;14.40;10.00
30713;PMS7003;17465;47.934;33.430;2023-07-31T00:25:09;13.80;13.80;10.20
30713;PMS7003;17465;47.934;33.430;2023-07-31T00:27:39;13.20;13.20;9.00
30713;PMS7003;17465;47.934;33.430;2023-07-31T00:30:10;14.20;14.00;9.60
30713;PMS7003;17465;47.934;33.430;2023-07-31T00:32:41;14.00;13.80;9.00
30713;PMS7003;17465;47.934;33.430;2023-07-31T00:35:11;13.80;13.80;10.20
30713;PMS7003;17465;47.934;33.430;2023-07-31T00:37:42;16.80;16.80;12.00
30713;PMS7003;17465;47.934;33.430;2023-07-31T00:40:12;15.40;13.00;9.20
30713;PMS7003;17465;47.934;33.430;2023-07-31T00:42:42;13.20;13.20;9.80
30713;PMS7003;17465;47.934;33.430;2023-07-31T00:45:13;15.00;14.40;9.60
30713;PMS7003;17465;47.934;33.430;2023-07-31T00:47:43;14.40;13.60;8.80
30713;PMS7003;17465;47.934;33.430;2023-07-31T00:50:14;15.00;15.00;10.40
30713;PMS7003;17465;47.934;33.430;2023-07-31T00:52:44;16.40;15.20;10.00
30713;PMS7003;17465;47.934;33.430;2023-07-31T00:55:15;15.60;15.60;11.00
30713;PMS7003;17465;47.934;33.430;2023-07-31T00:57:46;11.40;11.40;6.60
30713;PMS7003;17465;47.934;33.430;2023-07-31T01:00:17;17.20;15.60;12.40
30713;PMS7003;17465;47.934;33.430;2023-07-31T01:02:48;16.00;15.80;10.80
30713;PMS7003;17465;47.934;33.430;2023-07-31T01:05:22;12.00;12.00;9.00
30713;PMS7003;17465;47.934;33.430;2023-07-31T01:08:02;15.60;14.40;9.00
30713;PMS7003;17465;47.934;33.430;2023-07-31T01:10:46;13.40;13.40;8.80
30713;PMS7003;17465;47.934;33.430;2023-07-31T01:13:17;13.40;12.80;9.00
30713;PMS7003;17465;47.934;33.430;2023-07-31T01:15:48;14.20;12.00;7.00
30713;PMS7003;17465;47.934;33.430;2023-07-31T01:18:18;13.00;13.00;10.40
30713;PMS7003;17465;47.934;33.430;2023-07-31T01:20:58;16.00;15.40;10.60
30713;PMS7003;17465;47.934;33.430;2023-07-31T01:26:23;15.80;14.60;11.00
30713;PMS7003;17465;47.934;33.430;2023-07-31T01:29:03;13.80;12.80;9.40
30713;PMS7003;17465;47.934;33.430;2023-07-31T01:31:34;16.40;15.40;12.00
30713;PMS7003;17465;47.934;33.430;2023-07-31T01:34:08;17.60;17.40;11.60
30713;PMS7003;17465;47.934;33.430;2023-07-31T01:36:40;16.60;16.60;12.40
30713;PMS7003;17465;47.934;33.430;2023-07-31T01:39:11;17.20;16.20;10.80
30713;PMS7003;17465;47.934;33.430;2023-07-31T01:41:41;18.80;18.00;12.80
30713;PMS7003;17465;47.934;33.430;2023-07-31T01:44:11;18.80;17.00;12.60
30713;PMS7003;17465;47.934;33.430;2023-07-31T01:46:42;22.80;22.80;17.00
30713;PMS7003;17465;47.934;33.430;2023-07-31T01:49:12;23.00;21.80;16.40
30713;PMS7003;17465;47.934;33.430;2023-07-31T01:51:42;23.00;21.00;15.80
30713;PMS7003;17465;47.934;33.430;2023-07-31T01:54:13;23.80;23.80;17.80
30713;PMS7003;17465;47.934;33.430;2023-07-31T01:56:43;26.40;25.80;18.60
30713;PMS7003;17465;47.934;33.430;2023-07-31T01:59:14;24.40;22.60;14.80
30713;PMS7003;17465;47.934;33.430;2023-07-31T02:01:46;33.00;29.80;20.20
30713;PMS7003;17465;47.934;33.430;2023-07-31T02:04:17;29.40;28.00;18.60
30713;PMS7003;17465;47.934;33.430;2023-07-31T02:06:48;33.40;30.00;21.00
30713;PMS7003;17465;47.934;33.430;2023-07-31T02:09:18;36.60;30.80;20.80
30713;PMS7003;17465;47.934;33.430;2023-07-31T02:11:48;30.20;28.20;19.00
30713;PMS7003;17465;47.934;33.430;2023-07-31T02:14:18;25.40;25.40;19.60
30713;PMS7003;17465;47.934;33.430;2023-07-31T02:16:48;32.80;28.00;18.20
30713;PMS7003;17465;47.934;33.430;2023-07-31T02:19:19;28.40;28.00;19.80
30713;PMS7003;17465;47.934;33.430;2023-07-31T02:21:49;30.00;28.60;20.20
30713;PMS7003;17465;47.934;33.430;2023-07-31T02:24:19;32.20;29.60;19.00
30713;PMS7003;17465;47.934;33.430;2023-07-31T02:26:49;36.20;32.20;20.80
30713;PMS7003;17465;47.934;33.430;2023-07-31T02:29:19;29.80;27.80;20.80
30713;PMS7003;17465;47.934;33.430;2023-07-31T02:31:50;34.80;31.20;21.00
30713;PMS7003;17465;47.934;33.430;2023-07-31T02:34:20;33.00;30.00;21.00
30713;PMS7003;17465;47.934;33.430;2023-07-31T02:36:50;37.40;31.20;21.20
30713;PMS7003;17465;47.934;33.430;2023-07-31T02:39:21;33.60;31.00;21.20
30713;PMS7003;17465;47.934;33.430;2023-07-31T02:41:51;33.40;30.20;21.00
30713;PMS7003;17465;47.934;33.430;2023-07-31T02:44:21;37.20;32.60;21.20
30713;PMS7003;17465;47.934;33.430;2023-07-31T02:46:51;26.80;25.80;16.00
30713;PMS7003;17465;47.934;33.430;2023-07-31T02:49:21;36.80;32.20;21.80
30713;PMS7003;17465;47.934;33.430;2023-07-31T02:51:52;34.20;30.60;21.60
30713;PMS7003;17465;47.934;33.430;2023-07-31T02:54:22;26.20;26.20;21.00
30713;PMS7003;17465;47.934;33.430;2023-07-31T02:56:53;33.80;30.40;21.60
30713;PMS7003;17465;47.934;33.430;2023-07-31T02:59:23;29.80;28.80;20.00
30713;PMS7003;17465;47.934;33.430;2023-07-31T03:01:53;26.40;26.40;20.00
30713;PMS7003;17465;47.934;33.430;2023-07-31T03:04:24;27.60;27.20;18.80
30713;PMS7003;17465;47.934;33.430;2023-07-31T03:06:54;24.80;24.60;18.80
30713;PMS7003;17465;47.934;33.430;2023-07-31T03:09:24;22.20;22.20;15.80
30713;PMS7003;17465;47.934;33.430;2023-07-31T03:11:54;23.00;22.80;15.80
30713;PMS7003;17465;47.934;33.430;2023-07-31T03:14:25;29.80;25.60;19.00
30713;PMS7003;17465;47.934;33.430;2023-07-31T03:16:55;25.40;25.40;16.60
30713;PMS7003;17465;47.934;33.430;2023-07-31T03:19:25;29.80;27.80;19.00
30713;PMS7003;17465;47.934;33.430;2023-07-31T03:21:55;20.00;19.20;14.20
30713;PMS7003;17465;47.934;33.430;2023-07-31T03:24:26;21.60;21.00;15.40
30713;PMS7003;17465;47.934;33.430;2023-07-31T03:26:57;21.40;20.00;14.40
30713;PMS7003;17465;47.934;33.430;2023-07-31T03:29:27;23.00;22.40;16.40
30713;PMS7003;17465;47.934;33.430;2023-07-31T03:31:58;18.20;18.20;13.40
30713;PMS7003;17465;47.934;33.430;2023-07-31T03:34:28;18.60;18.60;14.40
30713;PMS7003;17465;47.934;33.430;2023-07-31T03:37:19;18.20;18.20;12.40
30713;PMS7003;17465;47.934;33.430;2023-07-31T03:39:49;20.00;18.00;12.20
30713;PMS7003;17465;47.934;33.430;2023-07-31T03:42:19;19.80;19.80;14.00
30713;PMS7003;17465;47.934;33.430;2023-07-31T03:44:49;20.60;19.80;13.80
30713;PMS7003;17465;47.934;33.430;2023-07-31T03:47:20;17.40;17.40;10.60
30713;PMS7003;17465;47.934;33.430;2023-07-31T03:49:50;20.20;19.20;13.60
30713;PMS7003;17465;47.934;33.430;2023-07-31T03:52:20;16.40;16.40;10.80
30713;PMS7003;17465;47.934;33.430;2023-07-31T03:54:51;16.00;16.00;12.20
30713;PMS7003;17465;47.934;33.430;2023-07-31T03:57:21;15.80;15.80;11.60
30713;PMS7003;17465;47.934;33.430;2023-07-31T03:59:51;17.00;17.00;13.20
30713;PMS7003;17465;47.934;33.430;2023-07-31T04:02:21;19.60;16.60;12.60
30713;PMS7003;17465;47.934;33.430;2023-07-31T04:04:52;17.80;17.80;12.00
30713;PMS7003;17465;47.934;33.430;2023-07-31T04:07:22;16.40;14.60;11.20
30713;PMS7003;17465;47.934;33.430;2023-07-31T04:09:52;16.20;15.40;11.00
30713;PMS7003;17465;47.934;33.430;2023-07-31T04:12:22;14.60;14.60;10.00
30713;PMS7003;17465;47.934;33.430;2023-07-31T04:14:58;15.00;15.00;11.60
30713;PMS7003;17465;47.934;33.430;2023-07-31T04:17:24;14.60;14.60;10.20
30713;PMS7003;17465;47.934;33.430;2023-07-31T04:19:57;14.20;13.40;9.00
30713;PMS7003;17465;47.934;33.430;2023-07-31T04:22:27;15.60;14.40;12.00
30713;PMS7003;17465;47.934;33.430;2023-07-31T04:24:58;15.80;15.80;10.80
30713;PMS7003;17465;47.934;33.430;2023-07-31T04:27:31;14.00;14.00;10.00
30713;PMS7003;17465;47.934;33.430;2023-07-31T04:30:06;16.20;16.20;11.80
30713;PMS7003;17465;47.934;33.430;2023-07-31T04:32:56;12.60;12.60;9.40
30713;PMS7003;17465;47.934;33.430;2023-07-31T04:35:27;14.20;14.00;8.80
30713;PMS7003;17465;47.934;33.430;2023-07-31T04:37:58;17.00;15.60;10.20
30713;PMS7003;17465;47.934;33.430;2023-07-31T04:40:29;14.00;14.00;11.80
30713;PMS7003;17465;47.934;33.430;2023-07-31T04:43:01;15.20;15.20;11.80
30713;PMS7003;17465;47.934;33.430;2023-07-31T04:45:34;21.20;21.20;15.80
30713;PMS7003;17465;47.934;33.430;2023-07-31T04:48:05;12.00;12.00;7.20
30713;PMS7003;17465;47.934;33.430;2023-07-31T04:50:35;14.40;13.20;10.20
30713;PMS7003;17465;47.934;33.430;2023-07-31T04:53:05;54.80;44.40;29.40
30713;PMS7003;17465;47.934;33.430;2023-07-31T04:55:36;20.00;19.00;14.00
30713;PMS7003;17465;47.934;33.430;2023-07-31T04:58:08;14.00;14.00;10.80
30713;PMS7003;17465;47.934;33.430;2023-07-31T05:00:38;14.80;14.00;11.20
30713;PMS7003;17465;47.934;33.430;2023-07-31T05:03:09;16.40;15.80;12.00
30713;PMS7003;17465;47.934;33.430;2023-07-31T05:05:45;13.20;13.20;11.00
30713;PMS7003;17465;47.934;33.430;2023-07-31T05:08:11;15.80;15.80;11.80
30713;PMS7003;17465;47.934;33.430;2023-07-31T05:10:41;17.40;15.80;12.00
30713;PMS7003;17465;47.934;33.430;2023-07-31T05:13:11;14.40;14.40;11.00
30713;PMS7003;17465;47.934;33.430;2023-07-31T05:15:42;13.00;13.00;11.00
30713;PMS7003;17465;47.934;33.430;2023-07-31T05:18:12;14.60;14.60;10.00
30713;PMS7003;17465;47.934;33.430;2023-07-31T05:20:42;14.60;14.60;12.20
30713;PMS7003;17465;47.934;33.430;2023-07-31T05:23:12;14.60;14.60;11.00
30713;PMS7003;17465;47.934;33.430;2023-07-31T05:25:43;15.80;12.60;9.40
30713;PMS7003;17465;47.934;33.430;2023-07-31T05:28:13;16.80;15.60;11.40
30713;PMS7003;17465;47.934;33.430;2023-07-31T05:30:43;13.80;13.80;10.00
30713;PMS7003;17465;47.934;33.430;2023-07-31T05:33:14;13.80;13.80;9.40
30713;PMS7003;17465;47.934;33.430;2023-07-31T05:35:44;15.00;15.00;10.00
30713;PMS7003;17465;47.934;33.430;2023-07-31T05:38:14;14.20;14.20;10.60
30713;PMS7003;17465;47.934;33.430;2023-07-31T05:40:44;16.20;16.20;10.80
30713;PMS7003;17465;47.934;33.430;2023-07-31T05:43:15;13.60;13.60;9.40
30713;PMS7003;17465;47.934;33.430;2023-07-31T05:45:51;17.20;17.20;11.80
30713;PMS7003;17465;47.934;33.430;2023-07-31T05:48:17;15.00;15.00;9.40
30713;PMS7003;17465;47.934;33.430;2023-07-31T05:50:48;13.20;13.20;9.40
30713;PMS7003;17465;47.934;33.430;2023-07-31T05:53:18;14.40;13.00;9.20
30713;PMS7003;17465;47.934;33.430;2023-07-31T05:55:48;15.20;15.00;12.00
30713;PMS7003;17465;47.934;33.430;2023-07-31T05:58:19;12.80;12.80;10.20
30713;PMS7003;17465;47.934;33.430;2023-07-31T06:00:51;11.60;11.60;8.20
30713;PMS7003;17465;47.934;33.430;2023-07-31T06:03:23;14.20;14.20;10.80
30713;PMS7003;17465;47.934;33.430;2023-07-31T06:05:53;15.80;14.80;10.20
30713;PMS7003;17465;47.934;33.430;2023-07-31T06:08:23;14.60;14.00;10.40
30713;PMS7003;17465;47.934;33.430;2023-07-31T06:10:53;17.40;17.40;13.40
30713;PMS7003;17465;47.934;33.430;2023-07-31T06:13:24;18.60;18.60;14.80
30713;PMS7003;17465;47.934;33.430;2023-07-31T06:15:54;20.00;20.00;15.40
30713;PMS7003;17465;47.934;33.430;2023-07-31T06:18:25;16.60;16.60;12.20
30713;PMS7003;17465;47.934;33.430;2023-07-31T06:20:55;13.40;13.40;10.00
30713;PMS7003;17465;47.934;33.430;2023-07-31T06:23:26;18.20;16.80;12.20
30713;PMS7003;17465;47.934;33.430;2023-07-31T06:25:56;16.00;16.00;13.80
30713;PMS7003;17465;47.934;33.430;2023-07-31T06:28:28;16.60;16.60;13.40
30713;PMS7003;17465;47.934;33.430;2023-07-31T06:31:10;16.80;15.20;12.40
30713;PMS7003;17465;47.934;33.430;2023-07-31T06:33:40;14.60;13.00;9.40
30713;PMS7003;17465;47.934;33.430;2023-07-31T06:36:10;14.20;14.20;11.00
30713;PMS7003;17465;47.934;33.430;2023-07-31T06:38:41;9.80;9.40;7.80
30713;PMS7003;17465;47.934;33.430;2023-07-31T06:41:11;14.80;13.40;9.80
30713;PMS7003;17465;47.934;33.430;2023-07-31T06:43:41;14.00;14.00;8.60
30713;PMS7003;17465;47.934;33.430;2023-07-31T06:46:13;10.00;10.00;7.60
30713;PMS7003;17465;47.934;33.430;2023-07-31T06:48:44;12.00;12.00;9.60
30713;PMS7003;17465;47.934;33.430;2023-07-31T06:51:14;13.00;13.00;8.40
30713;PMS7003;17465;47.934;33.430;2023-07-31T06:53:45;12.80;12.80;10.80
30713;PMS7003;17465;47.934;33.430;2023-07-31T06:56:15;12.00;12.00;8.20
30713;PMS7003;17465;47.934;33.430;2023-07-31T06:58:45;10.80;10.80;8.40
30713;PMS7003;17465;47.934;33.430;2023-07-31T07:01:16;12.80;12.80;11.00
30713;PMS7003;17465;47.934;33.430;2023-07-31T07:03:46;11.40;10.40;7.40
30713;PMS7003;17465;47.934;33.430;2023-07-31T07:06:17;12.40;12.00;10.00
30713;PMS7003;17465;47.934;33.430;2023-07-31T07:08:50;11.20;11.00;8.00
30713;PMS7003;17465;47.934;33.430;2023-07-31T07:11:22;10.80;10.80;8.20
30713;PMS7003;17465;47.934;33.430;2023-07-31T07:13:52;13.00;13.00;10.00
30713;PMS7003;17465;47.934;33.430;2023-07-31T07:16:23;12.80;12.80;10.20
30713;PMS7003;17465;47.934;33.430;2023-07-31T07:18:53;12.60;12.60;9.60
30713;PMS7003;17465;47.934;33.430;2023-07-31T07:21:25;12.60;12.60;10.20
30713;PMS7003;17465;47.934;33.430;2023-07-31T07:23:55;13.40;13.40;10.80
30713;PMS7003;17465;47.934;33.430;2023-07-31T07:26:26;15.80;15.40;11.40
30713;PMS7003;17465;47.934;33.430;2023-07-31T07:28:57;14.00;13.80;9.40
30713;PMS7003;17465;47.934;33.430;2023-07-31T07:31:30;12.40;11.80;9.20
30713;PMS7003;17465;47.934;33.430;2023-07-31T07:34:01;15.40;15.40;11.60
30713;PMS7003;17465;47.934;33.430;2023-07-31T07:36:31;14.60;14.60;11.60
30713;PMS7003;17465;47.934;33.430;2023-07-31T07:39:02;13.80;13.80;9.80
30713;PMS7003;17465;47.934;33.430;2023-07-31T07:41:35;14.00;13.80;11.00
30713;PMS7003;17465;47.934;33.430;2023-07-31T07:44:08;15.60;15.60;12.20
30713;PMS7003;17465;47.934;33.430;2023-07-31T07:46:39;13.80;13.80;11.20
30713;PMS7003;17465;47.934;33.430;2023-07-31T07:49:09;12.00;12.00;8.80
30713;PMS7003;17465;47.934;33.430;2023-07-31T07:51:42;20.60;19.00;14.20
30713;PMS7003;17465;47.934;33.430;2023-07-31T07:54:12;18.20;18.20;15.80
30713;PMS7003;17465;47.934;33.430;2023-07-31T07:56:42;20.80;20.00;15.00
30713;PMS7003;17465;47.934;33.430;2023-07-31T07:59:15;26.20;24.00;16.20
30713;PMS7003;17465;47.934;33.430;2023-07-31T08:01:44;22.60;22.60;16.80
30713;PMS7003;17465;47.934;33.430;2023-07-31T08:04:16;24.80;23.60;17.60
30713;PMS7003;17465;47.934;33.430;2023-07-31T08:06:48;18.40;18.40;12.80
30713;PMS7003;17465;47.934;33.430;2023-07-31T08:09:18;23.00;22.80;17.20
30713;PMS7003;17465;47.934;33.430;2023-07-31T08:11:49;22.20;22.20;16.40
30713;PMS7003;17465;47.934;33.430;2023-07-31T08:14:19;23.80;21.40;16.40
30713;PMS7003;17465;47.934;33.430;2023-07-31T08:16:49;23.60;23.60;17.80
30713;PMS7003;17465;47.934;33.430;2023-07-31T08:19:20;21.60;21.00;16.40
30713;PMS7003;17465;47.934;33.430;2023-07-31T08:21:50;19.60;19.60;14.80
30713;PMS7003;17465;47.934;33.430;2023-07-31T08:24:22;22.60;20.80;16.60
30713;PMS7003;17465;47.934;33.430;2023-07-31T08:26:53;20.80;20.60;14.80
30713;PMS7003;17465;47.934;33.430;2023-07-31T08:29:23;25.00;24.20;18.60
30713;PMS7003;17465;47.934;33.430;2023-07-31T08:31:54;26.40;25.80;19.20
30713;PMS7003;17465;47.934;33.430;2023-07-31T08:34:25;30.40;27.60;20.20
30713;PMS7003;17465;47.934;33.430;2023-07-31T08:36:55;29.80;28.00;19.80
30713;PMS7003;17465;47.934;33.430;2023-07-31T08:39:27;46.00;38.60;28.40
30713;PMS7003;17465;47.934;33.430;2023-07-31T08:41:58;43.20;36.80;26.60
30713;PMS7003;17465;47.934;33.430;2023-07-31T08:44:29;44.00;37.40;26.80
30713;PMS7003;17465;47.934;33.430;2023-07-31T08:47:00;43.20;36.40;26.60
30713;PMS7003;17465;47.934;33.430;2023-07-31T08:49:31;53.80;44.20;33.60
30713;PMS7003;17465;47.934;33.430;2023-07-31T08:52:02;57.60;48.00;38.00
30713;PMS7003;17465;47.934;33.430;2023-07-31T08:54:33;60.40;53.20;42.20
30713;PMS7003;17465;47.934;33.430;2023-07-31T08:57:05;55.60;46.20;36.80
30713;PMS7003;17465;47.934;33.430;2023-07-31T08:59:37;54.20;44.00;35.00
30713;PMS7003;17465;47.934;33.430;2023-07-31T09:02:08;56.60;47.40;37.00
30713;PMS7003;17465;47.934;33.430;2023-07-31T09:04:39;56.20;45.80;36.00
30713;PMS7003;17465;47.934;33.430;2023-07-31T09:07:09;51.80;42.40;30.60
30713;PMS7003;17465;47.934;33.430;2023-07-31T09:09:43;51.00;41.40;29.40
30713;PMS7003;17465;47.934;33.430;2023-07-31T09:12:15;51.80;41.80;30.60
30713;PMS7003;17465;47.934;33.430;2023-07-31T09:14:45;40.40;34.60;24.40
30713;PMS7003;17465;47.934;33.430;2023-07-31T09:17:28;30.40;28.20;21.40
30713;PMS7003;17465;47.934;33.430;2023-07-31T09:20:12;29.40;27.40;19.60
30713;PMS7003;17465;47.934;33.430;2023-07-31T09:22:54;28.20;26.20;19.40
30713;PMS7003;17465;47.934;33.430;2023-07-31T09:25:22;32.40;28.80;21.00
30713;PMS7003;17465;47.934;33.430;2023-07-31T09:27:54;23.20;23.20;17.60
30713;PMS7003;17465;47.934;33.430;2023-07-31T09:30:29;27.40;26.40;18.60
30713;PMS7003;17465;47.934;33.430;2023-07-31T09:33:01;12.60;12.60;5.60
30713;PMS7003;17465;47.934;33.430;2023-07-31T09:35:35;21.80;21.80;16.40
30713;PMS7003;17465;47.934;33.430;2023-07-31T09:38:11;22.00;22.00;17.00
30713;PMS7003;17465;47.934;33.430;2023-07-31T09:40:43;21.20;21.20;16.40
30713;PMS7003;17465;47.934;33.430;2023-07-31T09:43:19;23.40;23.40;17.40
30713;PMS7003;17465;47.934;33.430;2023-07-31T09:45:56;22.60;22.60;17.20
30713;PMS7003;17465;47.934;33.430;2023-07-31T09:48:26;19.60;19.60;15.20
30713;PMS7003;17465;47.934;33.430;2023-07-31T09:50:59;19.20;18.80;15.60
30713;PMS7003;17465;47.934;33.430;2023-07-31T09:53:30;20.40;20.40;16.40
30713;PMS7003;17465;47.934;33.430;2023-07-31T09:56:00;15.00;15.00;11.60
30713;PMS7003;17465;47.934;33.430;2023-07-31T09:58:32;17.00;16.80;13.60
30713;PMS7003;17465;47.934;33.430;2023-07-31T10:01:03;12.00;12.00;9.80
30713;PMS7003;17465;47.934;33.430;2023-07-31T10:03:34;13.20;13.20;10.00
30713;PMS7003;17465;47.934;33.430;2023-07-31T10:06:05;12.00;12.00;10.00
30713;PMS7003;17465;47.934;33.430;2023-07-31T10:08:38;15.80;12.20;9.80
30713;PMS7003;17465;47.934;33.430;2023-07-31T10:11:09;11.00;11.00;9.00
30713;PMS7003;17465;47.934;33.430;2023-07-31T10:13:41;11.00;11.00;9.00
30713;PMS7003;17465;47.934;33.430;2023-07-31T10:16:12;8.80;8.80;8.00
30713;PMS7003;17465;47.934;33.430;2023-07-31T10:18:45;9.40;9.40;7.80
30713;PMS7003;17465;47.934;33.430;2023-07-31T10:21:17;9.40;9.40;8.20
30713;PMS7003;17465;47.934;33.430;2023-07-31T10:23:49;4.60;4.60;3.60
30713;PMS7003;17465;47.934;33.430;2023-07-31T10:26:20;6.00;5.20;4.80
30713;PMS7003;17465;47.934;33.430;2023-07-31T10:28:52;8.20;7.80;6.60
30713;PMS7003;17465;47.934;33.430;2023-07-31T10:31:23;8.40;8.40;6.60
30713;PMS7003;17465;47.934;33.430;2023-07-31T10:33:55;9.80;8.60;6.00
30713;PMS7003;17465;47.934;33.430;2023-07-31T10:36:27;7.80;7.80;6.20
30713;PMS7003;17465;47.934;33.430;2023-07-31T10:38:57;9.00;9.00;7.00
30713;PMS7003;17465;47.934;33.430;2023-07-31T10:41:30;9.80;9.80;7.80
30713;PMS7003;17465;47.934;33.430;2023-07-31T10:44:01;6.80;6.80;5.00
30713;PMS7003;17465;47.934;33.430;2023-07-31T10:46:32;7.60;7.60;6.00
30713;PMS7003;17465;47.934;33.430;2023-07-31T10:49:02;10.00;10.00;7.80
30713;PMS7003;17465;47.934;33.430;2023-07-31T10:51:37;10.00;10.00;7.20
30713;PMS7003;17465;47.934;33.430;2023-07-31T10:54:12;9.40;9.20;6.00
30713;PMS7003;17465;47.934;33.430;2023-07-31T10:56:46;10.00;10.00;8.20
30713;PMS7003;17465;47.934;33.430;2023-07-31T10:59:18;10.00;10.00;8.00
30713;PMS7003;17465;47.934;33.430;2023-07-31T11:01:52;13.00;12.20;10.40
30713;PMS7003;17465;47.934;33.430;2023-07-31T11:04:25;11.40;11.20;8.60
30713;PMS7003;17465;47.934;33.430;2023-07-31T11:06:57;10.40;10.20;9.20
30713;PMS7003;17465;47.934;33.430;2023-07-31T11:09:31;13.20;13.20;10.20
30713;PMS7003;17465;47.934;33.430;2023-07-31T11:12:02;13.00;13.00;10.20
30713;PMS7003;17465;47.934;33.430;2023-07-31T11:14:33;13.60;12.80;10.20
30713;PMS7003;17465;47.934;33.430;2023-07-31T11:17:07;13.00;13.00;10.60
30713;PMS7003;17465;47.934;33.430;2023-07-31T11:19:37;11.60;11.60;9.80
30713;PMS7003;17465;47.934;33.430;2023-07-31T11:22:07;10.20;10.20;7.00
30713;PMS7003;17465;47.934;33.430;2023-07-31T11:24:38;8.00;8.00;5.80
30713;PMS7003;17465;47.934;33.430;2023-07-31T11:27:08;9.20;9.20;8.00
30713;PMS7003;17465;47.934;33.430;2023-07-31T11:29:38;10.00;10.00;7.80
30713;PMS7003;17465;47.934;33.430;2023-07-31T11:32:15;11.00;11.00;8.60
30713;PMS7003;17465;47.934;33.430;2023-07-31T11:34:51;9.00;9.00;7.20
30713;PMS7003;17465;47.934;33.430;2023-07-31T11:37:23;8.80;8.80;7.20
30713;PMS7003;17465;47.934;33.430;2023-07-31T11:39:59;5.00;4.40;2.20
30713;PMS7003;17465;47.934;33.430;2023-07-31T11:42:29;7.20;7.20;5.20
30713;PMS7003;17465;47.934;33.430;2023-07-31T11:45:05;4.40;4.40;3.20
30713;PMS7003;17465;47.934;33.430;2023-07-31T11:47:34;8.60;7.80;6.00
30713;PMS7003;17465;47.934;33.430;2023-07-31T11:50:10;8.20;8.20;6.00
30713;PMS7003;17465;47.934;33.430;2023-07-31T11:52:40;9.60;9.00;7.40
30713;PMS7003;17465;47.934;33.430;2023-07-31T11:55:13;9.00;8.60;6.00
30713;PMS7003;17465;47.934;33.430;2023-07-31T11:57:45;9.20;9.20;6.80
30713;PMS7003;17465;47.934;33.430;2023-07-31T12:00:16;7.00;6.00;4.00
30713;PMS7003;17465;47.934;33.430;2023-07-31T12:02:47;6.00;5.00;4.60
30713;PMS7003;17465;47.934;33.430;2023-07-31T12:05:19;5.20;5.20;5.00
30713;PMS7003;17465;47.934;33.430;2023-07-31T12:07:52;5.20;5.20;4.80
30713;PMS7003;17465;47.934;33.430;2023-07-31T12:10:24;5.00;5.00;4.60
30713;PMS7003;17465;47.934;33.430;2023-07-31T12:13:03;5.00;5.00;3.80
30713;PMS7003;17465;47.934;33.430;2023-07-31T12:15:33;5.20;5.00;3.80
30713;PMS7003;17465;47.934;33.430;2023-07-31T12:18:06;5.00;5.00;3.80
30713;PMS7003;17465;47.934;33.430;2023-07-31T12:20:41;6.20;6.20;5.20
30713;PMS7003;17465;47.934;33.430;2023-07-31T12:23:20;9.80;9.80;8.00
30713;PMS7003;17465;47.934;33.430;2023-07-31T12:26:02;7.80;7.80;6.40
30713;PMS7003;17465;47.934;33.430;2023-07-31T12:31:20;9.60;9.60;7.20
30713;PMS7003;17465;47.934;33.430;2023-07-31T12:33:51;10.40;10.20;10.00
30713;PMS7003;17465;47.934;33.430;2023-07-31T12:36:23;10.60;10.60;9.00
30713;PMS7003;17465;47.934;33.430;2023-07-31T12:38:54;9.80;9.80;6.60
30713;PMS7003;17465;47.934;33.430;2023-07-31T12:41:24;8.40;7.20;5.80
30713;PMS7003;17465;47.934;33.430;2023-07-31T12:43:56;20.80;20.80;16.00
30713;PMS7003;17465;47.934;33.430;2023-07-31T12:46:26;12.20;12.20;9.80
30713;PMS7003;17465;47.934;33.430;2023-07-31T12:48:56;14.40;14.20;10.00
30713;PMS7003;17465;47.934;33.430;2023-07-31T12:51:26;15.00;14.00;11.00
30713;PMS7003;17465;47.934;33.430;2023-07-31T12:53:57;16.00;15.40;9.80
30713;PMS7003;17465;47.934;33.430;2023-07-31T12:56:27;29.40;26.40;18.80
30713;PMS7003;17465;47.934;33.430;2023-07-31T12:58:57;32.60;28.60;20.20
30713;PMS7003;17465;47.934;33.430;2023-07-31T13:01:30;26.60;25.60;18.60
30713;PMS7003;17465;47.934;33.430;2023-07-31T13:04:01;17.40;17.40;13.20
30713;PMS7003;17465;47.934;33.430;2023-07-31T13:06:31;31.00;27.80;19.40
30713;PMS7003;17465;47.934;33.430;2023-07-31T13:09:01;31.80;27.80;19.80
30713;PMS7003;17465;47.934;33.430;2023-07-31T13:11:32;23.40;23.40;17.20
30713;PMS7003;17465;47.934;33.430;2023-07-31T13:14:08;14.60;13.00;10.00
30713;PMS7003;17465;47.934;33.430;2023-07-31T13:16:34;9.20;9.20;7.20
30713;PMS7003;17465;47.934;33.430;2023-07-31T13:19:04;7.20;7.20;5.60
30713;PMS7003;17465;47.934;33.430;2023-07-31T13:21:34;11.40;10.80;8.80
30713;PMS7003;17465;47.934;33.430;2023-07-31T13:24:05;11.40;11.40;9.80
30713;PMS7003;17465;47.934;33.430;2023-07-31T13:26:35;9.80;9.80;4.80
30713;PMS7003;17465;47.934;33.430;2023-07-31T13:29:06;15.60;15.60;11.20
30713;PMS7003;17465;47.934;33.430;2023-07-31T13:31:37;11.40;11.40;9.80
30713;PMS7003;17465;47.934;33.430;2023-07-31T13:34:07;9.60;8.60;6.60
30713;PMS7003;17465;47.934;33.430;2023-07-31T13:36:38;10.20;9.80;8.00
30713;PMS7003;17465;47.934;33.430;2023-07-31T13:39:09;16.20;16.00;14.60
30713;PMS7003;17465;47.934;33.430;2023-07-31T13:41:39;11.00;10.60;9.00
30713;PMS7003;17465;47.934;33.430;2023-07-31T13:44:11;10.00;10.00;8.00
30713;PMS7003;17465;47.934;33.430;2023-07-31T13:46:41;9.40;9.40;7.40
30713;PMS7003;17465;47.934;33.430;2023-07-31T13:49:12;8.00;8.00;6.80
30713;PMS7003;17465;47.934;33.430;2023-07-31T13:51:44;9.60;9.60;7.60
30713;PMS7003;17465;47.934;33.430;2023-07-31T13:54:18;8.60;8.60;6.80
30713;PMS7003;17465;47.934;33.430;2023-07-31T13:56:49;12.60;12.60;8.80
30713;PMS7003;17465;47.934;33.430;2023-07-31T13:59:20;7.20;7.20;4.80
30713;PMS7003;17465;47.934;33.430;2023-07-31T14:01:50;9.00;9.00;7.20
30713;PMS7003;17465;47.934;33.430;2023-07-31T14:04:26;5.80;5.80;4.80
30713;PMS7003;17465;47.934;33.430;2023-07-31T14:06:59;9.40;9.40;6.20
30713;PMS7003;17465;47.934;33.430;2023-07-31T14:09:29;8.00;7.40;5.80
30713;PMS7003;17465;47.934;33.430;2023-07-31T14:12:07;8.80;8.80;6.40